PWSweather.com
Personal Weather Stations
Station Observations
KPAAUBUR15
Lake Wynonah, Auburn, PA 17922

Lake WynonahAuburn, PA 17922

Lat: 40.582723, Lon: -76.193106

Elevation: 724

Station Type: Davis Vantage Pro2

http://WynonahWeather.com

Latest ConditionsUpdated 2:05:00 PM EDT Tuesday, Jun 18, 2019
Currently Today's Max Today's Min Today's Average
Temperature 76.5°F24.7°C 78.3°F25.7°C 66.9°F19.4°C 69.3°F20.7°C
Dew Point 73.7°F23.2°C 76.0°F24.4°C 66.9°F19.4°C 69.0°F20.6°C
Winds Calm Calm 2.3 mph -3.7 kmh - - 0.1 mph 0.2 kmh
Wind Gusts -- 10.4 mph16.7 kmh - -
Humidity 91% 100% 87% 99%
Pressure 29.84 in1010.5 mb 29.97 in1014.9 mb 29.84 in1010.5 mb -
Precipitation - 1.50 in38.1 mm - -
Hour Temp Dew Point Humidity Winds Wind Gusts Pressure Precip Precip Rate Daily Precip Total
02:05 PM 76.5°F24.7°C 73.7°F23.2°C 91% Calm Calm -- 29.84 in1010.5 mb - 0.00 in0.0 mm 1.50 in38.1 mm
02:00 PM 76.5°F24.7°C 73.0°F22.8°C 89% Calm Calm 4.6 mph7.4 kmh 29.84 in1010.5 mb - 0.00 in0.0 mm 1.50 in38.1 mm
01:55 PM 76.7°F24.8°C 72.9°F22.7°C 88% 1.2 mph WNW1.9 kmh WNW 10.4 mph16.7 kmh 29.84 in1010.5 mb - 0.00 in0.0 mm 1.50 in38.1 mm
01:50 PM 77.1°F25.1°C 73.0°F22.8°C 87% Calm Calm 1.2 mph1.9 kmh 29.84 in1010.5 mb - 0.00 in0.0 mm 1.50 in38.1 mm
01:45 PM 77.6°F25.3°C 73.4°F23.0°C 87% 1.2 mph SSW1.9 kmh SSW 6.9 mph11.1 kmh 29.84 in1010.5 mb - 0.00 in0.0 mm 1.50 in38.1 mm
01:40 PM 77.9°F25.5°C 73.7°F23.2°C 87% 1.2 mph SW1.9 kmh SW -- 29.84 in1010.5 mb - 0.00 in0.0 mm 1.50 in38.1 mm
01:35 PM 78.0°F25.6°C 73.8°F23.2°C 87% Calm Calm -- 29.84 in1010.5 mb - 0.00 in0.0 mm 1.50 in38.1 mm
01:30 PM 78.1°F25.6°C 74.3°F23.5°C 88% Calm Calm -- 29.85 in1010.8 mb - 0.00 in0.0 mm 1.50 in38.1 mm
01:25 PM 78.1°F25.6°C 74.6°F23.7°C 89% Calm Calm -- 29.85 in1010.8 mb - 0.00 in0.0 mm 1.50 in38.1 mm
01:20 PM 78.2°F25.7°C 74.7°F23.7°C 89% Calm Calm -- 29.85 in1010.8 mb - 0.00 in0.0 mm 1.50 in38.1 mm
01:15 PM 78.3°F25.7°C 75.1°F23.9°C 90% Calm Calm -- 29.85 in1010.8 mb - 0.00 in0.0 mm 1.50 in38.1 mm
01:10 PM 77.9°F25.5°C 75.7°F24.3°C 93% Calm Calm 1.2 mph1.9 kmh 29.85 in1010.8 mb - 0.00 in0.0 mm 1.50 in38.1 mm
01:05 PM 77.3°F25.2°C 75.1°F23.9°C 93% 1.2 mph WSW1.9 kmh WSW 5.8 mph9.3 kmh 29.85 in1010.8 mb - 0.00 in0.0 mm 1.50 in38.1 mm
01:00 PM 76.9°F24.9°C 76.0°F24.4°C 97% Calm Calm 1.2 mph1.9 kmh 29.85 in1010.8 mb - 0.00 in0.0 mm 1.50 in38.1 mm
12:55 PM 76.1°F24.5°C 75.5°F24.2°C 98% 1.2 mph SW1.9 kmh SW 8.1 mph13.0 kmh 29.86 in1011.2 mb - 0.00 in0.0 mm 1.50 in38.1 mm
12:50 PM 75.3°F24.1°C 75.0°F23.9°C 99% Calm Calm -- 29.86 in1011.2 mb - 0.00 in0.0 mm 1.50 in38.1 mm
12:45 PM 74.8°F23.8°C 74.8°F23.8°C 100% 1.2 mph WNW1.9 kmh WNW 3.5 mph5.6 kmh 29.87 in1011.5 mb - 0.00 in0.0 mm 1.50 in38.1 mm
12:40 PM 74.0°F23.3°C 74.0°F23.3°C 100% Calm Calm -- 29.87 in1011.5 mb - 0.00 in0.0 mm 1.50 in38.1 mm
12:35 PM 73.6°F23.1°C 73.6°F23.1°C 100% Calm Calm -- 29.87 in1011.5 mb - 0.00 in0.0 mm 1.50 in38.1 mm
12:30 PM 73.4°F23.0°C 73.4°F23.0°C 100% Calm Calm -- 29.88 in1011.9 mb - 0.00 in0.0 mm 1.50 in38.1 mm
12:25 PM 72.9°F22.7°C 72.9°F22.7°C 100% Calm Calm 1.2 mph1.9 kmh 29.88 in1011.9 mb - 0.00 in0.0 mm 1.50 in38.1 mm
12:20 PM 72.6°F22.6°C 72.6°F22.6°C 100% Calm Calm 1.2 mph1.9 kmh 29.88 in1011.9 mb - 0.00 in0.0 mm 1.50 in38.1 mm
12:15 PM 72.3°F22.4°C 72.3°F22.4°C 100% Calm Calm -- 29.89 in1012.2 mb - 0.00 in0.0 mm 1.50 in38.1 mm
12:10 PM 72.1°F22.3°C 72.1°F22.3°C 100% Calm Calm -- 29.89 in1012.2 mb - 0.00 in0.0 mm 1.50 in38.1 mm
12:05 PM 72.1°F22.3°C 72.1°F22.3°C 100% Calm Calm 1.2 mph1.9 kmh 29.89 in1012.2 mb - 0.00 in0.0 mm 1.50 in38.1 mm
12:00 PM 72.1°F22.3°C 72.1°F22.3°C 100% Calm Calm -- 29.89 in1012.2 mb - 0.00 in0.0 mm 1.50 in38.1 mm
11:55 AM 71.8°F22.1°C 71.8°F22.1°C 100% Calm Calm -- 29.89 in1012.2 mb - 0.00 in0.0 mm 1.50 in38.1 mm
11:50 AM 71.6°F22.0°C 71.6°F22.0°C 100% Calm Calm -- 29.89 in1012.2 mb - 0.00 in0.0 mm 1.50 in38.1 mm
11:45 AM 71.5°F21.9°C 71.5°F21.9°C 100% Calm Calm -- 29.89 in1012.2 mb - 0.00 in0.0 mm 1.50 in38.1 mm
11:40 AM 71.8°F22.1°C 71.8°F22.1°C 100% Calm Calm -- 29.89 in1012.2 mb - 0.00 in0.0 mm 1.50 in38.1 mm
11:35 AM 72.2°F22.3°C 72.2°F22.3°C 100% Calm Calm -- 29.89 in1012.2 mb - 0.00 in0.0 mm 1.50 in38.1 mm
11:30 AM 72.1°F22.3°C 72.1°F22.3°C 100% Calm Calm -- 29.89 in1012.2 mb - 0.00 in0.0 mm 1.50 in38.1 mm
11:25 AM 71.7°F22.1°C 71.7°F22.1°C 100% Calm Calm -- 29.89 in1012.2 mb - 0.00 in0.0 mm 1.50 in38.1 mm
11:20 AM 71.9°F22.2°C 71.9°F22.2°C 100% Calm Calm -- 29.89 in1012.2 mb - 0.00 in0.0 mm 1.50 in38.1 mm
11:15 AM 71.8°F22.1°C 71.8°F22.1°C 100% Calm Calm -- 29.89 in1012.2 mb - 0.00 in0.0 mm 1.50 in38.1 mm
11:10 AM 71.6°F22.0°C 71.6°F22.0°C 100% Calm Calm 1.2 mph1.9 kmh 29.89 in1012.2 mb - 0.00 in0.0 mm 1.50 in38.1 mm
11:05 AM 71.0°F21.7°C 71.0°F21.7°C 100% Calm Calm -- 29.89 in1012.2 mb - 0.00 in0.0 mm 1.50 in38.1 mm
11:00 AM 71.0°F21.7°C 71.0°F21.7°C 100% Calm Calm -- 29.89 in1012.2 mb - 0.00 in0.0 mm 1.50 in38.1 mm
10:55 AM 70.6°F21.4°C 70.6°F21.4°C 100% Calm Calm -- 29.89 in1012.2 mb - 0.00 in0.0 mm 1.50 in38.1 mm
10:50 AM 70.1°F21.2°C 70.1°F21.2°C 100% Calm Calm -- 29.89 in1012.2 mb - 0.00 in0.0 mm 1.50 in38.1 mm
10:45 AM 69.8°F21.0°C 69.8°F21.0°C 100% Calm Calm 1.2 mph1.9 kmh 29.89 in1012.2 mb - 0.00 in0.0 mm 1.50 in38.1 mm
10:40 AM 69.4°F20.8°C 69.4°F20.8°C 100% Calm Calm -- 29.89 in1012.2 mb - 0.00 in0.0 mm 1.50 in38.1 mm
10:35 AM 68.7°F20.4°C 68.7°F20.4°C 100% Calm Calm -- 29.89 in1012.2 mb - 0.00 in0.0 mm 1.50 in38.1 mm
10:30 AM 68.6°F20.3°C 68.6°F20.3°C 100% Calm Calm -- 29.90 in1012.5 mb - 0.15 in3.8 mm 1.50 in38.1 mm
10:25 AM 68.9°F20.5°C 68.9°F20.5°C 100% 1.2 mph SW1.9 kmh SW 3.5 mph5.6 kmh 29.90 in1012.5 mb - 0.26 in6.6 mm 1.40 in35.6 mm
10:20 AM 69.1°F20.6°C 69.1°F20.6°C 100% 2.3 mph ENE3.7 kmh ENE 2.3 mph3.7 kmh 29.89 in1012.2 mb - 0.18 in4.6 mm 1.15 in29.2 mm
10:15 AM 69.0°F20.6°C 69.0°F20.6°C 100% Calm Calm -- 29.91 in1012.9 mb - 0.30 in7.6 mm 1.03 in26.2 mm
10:10 AM 69.0°F20.6°C 69.0°F20.6°C 100% Calm Calm -- 29.91 in1012.9 mb - 0.11 in2.8 mm 0.77 in19.6 mm
10:05 AM 69.0°F20.6°C 69.0°F20.6°C 100% Calm Calm -- 29.91 in1012.9 mb - 0.00 in0.0 mm 0.66 in16.8 mm
10:00 AM 69.2°F20.7°C 69.2°F20.7°C 100% Calm Calm -- 29.91 in1012.9 mb - 0.01 in0.3 mm 0.66 in16.8 mm
09:55 AM 69.1°F20.6°C 69.1°F20.6°C 100% Calm Calm -- 29.91 in1012.9 mb - 0.00 in0.0 mm 0.65 in16.5 mm
09:50 AM 69.0°F20.6°C 69.0°F20.6°C 100% Calm Calm -- 29.91 in1012.9 mb - 0.01 in0.3 mm 0.65 in16.5 mm
09:45 AM 68.9°F20.5°C 68.9°F20.5°C 100% Calm Calm -- 29.91 in1012.9 mb - 0.01 in0.3 mm 0.65 in16.5 mm
09:40 AM 69.0°F20.6°C 69.0°F20.6°C 100% Calm Calm 1.2 mph1.9 kmh 29.91 in1012.9 mb - 0.00 in0.0 mm 0.64 in16.3 mm
09:35 AM 69.0°F20.6°C 69.0°F20.6°C 100% Calm Calm -- 29.91 in1012.9 mb - 0.09 in2.3 mm 0.64 in16.3 mm
09:30 AM 69.0°F20.6°C 69.0°F20.6°C 100% Calm Calm -- 29.92 in1013.2 mb - 0.23 in5.8 mm 0.58 in14.7 mm
09:25 AM 69.0°F20.6°C 69.0°F20.6°C 100% Calm Calm -- 29.93 in1013.5 mb - 0.12 in3.0 mm 0.37 in9.4 mm
09:20 AM 68.9°F20.5°C 68.9°F20.5°C 100% Calm Calm -- 29.91 in1012.9 mb - 0.02 in0.5 mm 0.27 in6.9 mm
09:15 AM 68.9°F20.5°C 68.9°F20.5°C 100% Calm Calm -- 29.91 in1012.9 mb - 0.00 in0.0 mm 0.25 in6.4 mm
09:10 AM 68.8°F20.4°C 68.8°F20.4°C 100% Calm Calm 1.2 mph1.9 kmh 29.91 in1012.9 mb - 0.01 in0.3 mm 0.25 in6.4 mm
09:05 AM 68.7°F20.4°C 68.7°F20.4°C 100% Calm Calm 1.2 mph1.9 kmh 29.91 in1012.9 mb - 0.00 in0.0 mm 0.24 in6.1 mm
09:00 AM 68.6°F20.3°C 68.6°F20.3°C 100% Calm Calm -- 29.91 in1012.9 mb - 0.00 in0.0 mm 0.24 in6.1 mm
08:55 AM 68.5°F20.3°C 68.5°F20.3°C 100% Calm Calm -- 29.91 in1012.9 mb - 0.00 in0.0 mm 0.24 in6.1 mm
08:50 AM 68.4°F20.2°C 68.4°F20.2°C 100% Calm Calm -- 29.91 in1012.9 mb - 0.00 in0.0 mm 0.24 in6.1 mm
08:45 AM 68.4°F20.2°C 68.4°F20.2°C 100% Calm Calm -- 29.92 in1013.2 mb - 0.00 in0.0 mm 0.24 in6.1 mm
08:40 AM 68.3°F20.2°C 68.3°F20.2°C 100% Calm Calm -- 29.92 in1013.2 mb - 0.00 in0.0 mm 0.24 in6.1 mm
08:35 AM 68.3°F20.2°C 68.3°F20.2°C 100% Calm Calm -- 29.92 in1013.2 mb - 0.00 in0.0 mm 0.24 in6.1 mm
08:30 AM 68.3°F20.2°C 68.3°F20.2°C 100% Calm Calm -- 29.92 in1013.2 mb - 0.00 in0.0 mm 0.24 in6.1 mm
08:25 AM 68.2°F20.1°C 68.2°F20.1°C 100% Calm Calm -- 29.92 in1013.2 mb - 0.00 in0.0 mm 0.24 in6.1 mm
08:20 AM 68.1°F20.1°C 68.1°F20.1°C 100% Calm Calm -- 29.92 in1013.2 mb - 0.00 in0.0 mm 0.24 in6.1 mm
08:15 AM 68.0°F20.0°C 68.0°F20.0°C 100% Calm Calm -- 29.92 in1013.2 mb - 0.00 in0.0 mm 0.24 in6.1 mm
08:10 AM 67.9°F19.9°C 67.9°F19.9°C 100% Calm Calm -- 29.92 in1013.2 mb - 0.00 in0.0 mm 0.24 in6.1 mm
08:05 AM 67.9°F19.9°C 67.9°F19.9°C 100% Calm Calm -- 29.92 in1013.2 mb - 0.00 in0.0 mm 0.24 in6.1 mm
08:00 AM 67.8°F19.9°C 67.8°F19.9°C 100% Calm Calm -- 29.92 in1013.2 mb - 0.00 in0.0 mm 0.24 in6.1 mm
07:55 AM 67.7°F19.8°C 67.7°F19.8°C 100% Calm Calm -- 29.92 in1013.2 mb - 0.00 in0.0 mm 0.24 in6.1 mm
07:50 AM 67.6°F19.8°C 67.6°F19.8°C 100% Calm Calm -- 29.92 in1013.2 mb - 0.00 in0.0 mm 0.24 in6.1 mm
07:45 AM 67.6°F19.8°C 67.6°F19.8°C 100% Calm Calm -- 29.92 in1013.2 mb - 0.00 in0.0 mm 0.24 in6.1 mm
07:40 AM 67.6°F19.8°C 67.6°F19.8°C 100% Calm Calm -- 29.92 in1013.2 mb - 0.00 in0.0 mm 0.24 in6.1 mm
07:35 AM 67.6°F19.8°C 67.6°F19.8°C 100% Calm Calm -- 29.92 in1013.2 mb - 0.00 in0.0 mm 0.24 in6.1 mm
07:30 AM 67.6°F19.8°C 67.6°F19.8°C 100% Calm Calm -- 29.91 in1012.9 mb - 0.00 in0.0 mm 0.24 in6.1 mm
07:25 AM 67.5°F19.7°C 67.5°F19.7°C 100% Calm Calm -- 29.91 in1012.9 mb - 0.00 in0.0 mm 0.24 in6.1 mm
07:20 AM 67.4°F19.7°C 67.4°F19.7°C 100% Calm Calm -- 29.91 in1012.9 mb - 0.00 in0.0 mm 0.24 in6.1 mm
07:15 AM 67.4°F19.7°C 67.4°F19.7°C 100% Calm Calm -- 29.91 in1012.9 mb - 0.00 in0.0 mm 0.24 in6.1 mm
07:10 AM 67.4°F19.7°C 67.4°F19.7°C 100% Calm Calm -- 29.92 in1013.2 mb - 0.00 in0.0 mm 0.24 in6.1 mm
07:05 AM 67.4°F19.7°C 67.4°F19.7°C 100% Calm Calm -- 29.92 in1013.2 mb - 0.00 in0.0 mm 0.24 in6.1 mm
07:00 AM 67.4°F19.7°C 67.4°F19.7°C 100% Calm Calm 1.2 mph1.9 kmh 29.91 in1012.9 mb - 0.00 in0.0 mm 0.24 in6.1 mm
06:55 AM 67.4°F19.7°C 67.4°F19.7°C 100% Calm Calm -- 29.91 in1012.9 mb - 0.00 in0.0 mm 0.24 in6.1 mm
06:50 AM 67.4°F19.7°C 67.4°F19.7°C 100% Calm Calm -- 29.91 in1012.9 mb - 0.00 in0.0 mm 0.24 in6.1 mm
06:45 AM 67.3°F19.6°C 67.3°F19.6°C 100% Calm Calm -- 29.91 in1012.9 mb - 0.00 in0.0 mm 0.24 in6.1 mm
06:40 AM 67.3°F19.6°C 67.3°F19.6°C 100% Calm Calm -- 29.91 in1012.9 mb - 0.00 in0.0 mm 0.24 in6.1 mm
06:35 AM 67.3°F19.6°C 67.3°F19.6°C 100% Calm Calm -- 29.92 in1013.2 mb - 0.00 in0.0 mm 0.24 in6.1 mm
06:30 AM 67.3°F19.6°C 67.3°F19.6°C 100% Calm Calm -- 29.91 in1012.9 mb - 0.00 in0.0 mm 0.24 in6.1 mm
06:25 AM 67.3°F19.6°C 67.3°F19.6°C 100% Calm Calm -- 29.91 in1012.9 mb - 0.01 in0.3 mm 0.24 in6.1 mm
06:20 AM 67.2°F19.6°C 67.3°F19.6°C 100% Calm Calm -- 29.92 in1013.2 mb - 0.00 in0.0 mm 0.23 in5.8 mm
06:15 AM 67.2°F19.6°C 67.2°F19.6°C 100% Calm Calm -- 29.92 in1013.2 mb - 0.00 in0.0 mm 0.23 in5.8 mm
06:10 AM 67.2°F19.6°C 67.2°F19.6°C 100% Calm Calm -- 29.92 in1013.2 mb - 0.00 in0.0 mm 0.23 in5.8 mm
06:05 AM 67.0°F19.4°C 67.0°F19.4°C 100% Calm Calm -- 29.92 in1013.2 mb - 0.01 in0.3 mm 0.23 in5.8 mm
06:00 AM 67.0°F19.4°C 67.0°F19.4°C 100% Calm Calm -- 29.92 in1013.2 mb - 0.01 in0.3 mm 0.22 in5.6 mm
05:55 AM 67.0°F19.4°C 67.0°F19.4°C 100% Calm Calm -- 29.92 in1013.2 mb - 0.01 in0.3 mm 0.21 in5.3 mm
05:50 AM 67.0°F19.4°C 67.0°F19.4°C 100% Calm Calm -- 29.92 in1013.2 mb - 0.01 in0.3 mm 0.20 in5.1 mm
05:45 AM 67.0°F19.4°C 67.0°F19.4°C 100% Calm Calm -- 29.93 in1013.5 mb - 0.01 in0.3 mm 0.20 in5.1 mm
05:40 AM 67.0°F19.4°C 67.0°F19.4°C 100% Calm Calm -- 29.92 in1013.2 mb - 0.01 in0.3 mm 0.19 in4.8 mm
05:35 AM 67.1°F19.5°C 67.1°F19.5°C 100% Calm Calm -- 29.92 in1013.2 mb - 0.00 in0.0 mm 0.18 in4.6 mm
05:30 AM 67.0°F19.4°C 67.0°F19.4°C 100% Calm Calm -- 29.92 in1013.2 mb - 0.00 in0.0 mm 0.18 in4.6 mm
05:25 AM 66.9°F19.4°C 66.9°F19.4°C 100% Calm Calm -- 29.92 in1013.2 mb - 0.00 in0.0 mm 0.18 in4.6 mm
05:20 AM 67.0°F19.4°C 67.0°F19.4°C 100% Calm Calm -- 29.92 in1013.2 mb - 0.01 in0.3 mm 0.18 in4.6 mm
05:15 AM 67.0°F19.4°C 67.0°F19.4°C 100% Calm Calm -- 29.93 in1013.5 mb - 0.02 in0.5 mm 0.18 in4.6 mm
05:10 AM 67.0°F19.4°C 67.0°F19.4°C 100% Calm Calm -- 29.93 in1013.5 mb - 0.01 in0.3 mm 0.17 in4.3 mm
05:05 AM 67.0°F19.4°C 67.0°F19.4°C 100% Calm Calm -- 29.92 in1013.2 mb - 0.00 in0.0 mm 0.16 in4.1 mm
05:00 AM 67.0°F19.4°C 67.0°F19.4°C 100% Calm Calm -- 29.93 in1013.5 mb - 0.01 in0.3 mm 0.16 in4.1 mm
04:55 AM 67.0°F19.4°C 67.0°F19.4°C 100% Calm Calm -- 29.93 in1013.5 mb - 0.01 in0.3 mm 0.15 in3.8 mm
04:50 AM 67.0°F19.4°C 67.0°F19.4°C 100% Calm Calm -- 29.92 in1013.2 mb - 0.01 in0.3 mm 0.14 in3.6 mm
04:45 AM 67.0°F19.4°C 67.0°F19.4°C 100% Calm Calm -- 29.92 in1013.2 mb - 0.01 in0.3 mm 0.13 in3.3 mm
04:40 AM 67.0°F19.4°C 67.0°F19.4°C 100% Calm Calm -- 29.92 in1013.2 mb - 0.03 in0.8 mm 0.13 in3.3 mm
04:35 AM 67.0°F19.4°C 67.0°F19.4°C 100% Calm Calm -- 29.92 in1013.2 mb - 0.02 in0.5 mm 0.11 in2.8 mm
04:30 AM 67.0°F19.4°C 67.0°F19.4°C 100% Calm Calm -- 29.92 in1013.2 mb - 0.02 in0.5 mm 0.09 in2.3 mm
04:25 AM 67.0°F19.4°C 67.0°F19.4°C 100% Calm Calm -- 29.92 in1013.2 mb - 0.02 in0.5 mm 0.07 in1.8 mm
04:20 AM 67.0°F19.4°C 67.0°F19.4°C 100% Calm Calm -- 29.92 in1013.2 mb - 0.02 in0.5 mm 0.06 in1.5 mm
04:15 AM 67.0°F19.4°C 67.0°F19.4°C 100% Calm Calm -- 29.92 in1013.2 mb - 0.01 in0.3 mm 0.04 in1.0 mm
04:10 AM 67.0°F19.4°C 67.0°F19.4°C 100% Calm Calm -- 29.92 in1013.2 mb - 0.00 in0.0 mm 0.03 in0.8 mm
04:05 AM 67.0°F19.4°C 67.0°F19.4°C 100% Calm Calm -- 29.92 in1013.2 mb - 0.01 in0.3 mm 0.03 in0.8 mm
04:00 AM 67.0°F19.4°C 67.0°F19.4°C 100% Calm Calm -- 29.92 in1013.2 mb - 0.01 in0.3 mm 0.02 in0.5 mm
03:55 AM 67.0°F19.4°C 67.0°F19.4°C 100% Calm Calm -- 29.93 in1013.5 mb - 0.00 in0.0 mm 0.01 in0.3 mm
03:50 AM 67.0°F19.4°C 67.0°F19.4°C 100% Calm Calm -- 29.93 in1013.5 mb - 0.00 in0.0 mm 0.01 in0.3 mm
03:45 AM 66.9°F19.4°C 66.9°F19.4°C 100% Calm Calm -- 29.93 in1013.5 mb - 0.01 in0.3 mm 0.01 in0.3 mm
03:40 AM 66.9°F19.4°C 66.9°F19.4°C 100% Calm Calm -- 29.93 in1013.5 mb - 0.00 in0.0 mm 0.00 in0.0 mm
03:35 AM 66.9°F19.4°C 66.9°F19.4°C 100% Calm Calm -- 29.92 in1013.2 mb - 0.00 in0.0 mm 0.00 in0.0 mm
03:30 AM 66.9°F19.4°C 66.9°F19.4°C 100% Calm Calm -- 29.92 in1013.2 mb - 0.00 in0.0 mm 0.00 in0.0 mm
03:25 AM 66.9°F19.4°C 66.9°F19.4°C 100% Calm Calm -- 29.92 in1013.2 mb - 0.00 in0.0 mm 0.00 in0.0 mm
03:20 AM 66.9°F19.4°C 66.9°F19.4°C 100% Calm Calm -- 29.93 in1013.5 mb - 0.00 in0.0 mm 0.00 in0.0 mm
03:15 AM 66.9°F19.4°C 66.9°F19.4°C 100% Calm Calm -- 29.93 in1013.5 mb - 0.00 in0.0 mm 0.00 in0.0 mm
03:10 AM 66.9°F19.4°C 66.9°F19.4°C 100% Calm Calm -- 29.93 in1013.5 mb - 0.00 in0.0 mm 0.00 in0.0 mm
03:05 AM 66.9°F19.4°C 66.9°F19.4°C 100% Calm Calm -- 29.93 in1013.5 mb - 0.00 in0.0 mm 0.00 in0.0 mm
03:00 AM 67.0°F19.4°C 67.0°F19.4°C 100% Calm Calm -- 29.93 in1013.5 mb - 0.00 in0.0 mm 0.00 in0.0 mm
02:55 AM 67.1°F19.5°C 67.1°F19.5°C 100% Calm Calm -- 29.93 in1013.5 mb - 0.00 in0.0 mm 0.00 in0.0 mm
02:50 AM 67.1°F19.5°C 67.1°F19.5°C 100% Calm Calm -- 29.94 in1013.9 mb - 0.00 in0.0 mm 0.00 in0.0 mm
02:45 AM 67.2°F19.6°C 67.2°F19.6°C 100% Calm Calm -- 29.94 in1013.9 mb - 0.00 in0.0 mm 0.00 in0.0 mm
02:40 AM 67.2°F19.6°C 67.2°F19.6°C 100% Calm Calm -- 29.94 in1013.9 mb - 0.00 in0.0 mm 0.00 in0.0 mm
02:35 AM 67.3°F19.6°C 67.3°F19.6°C 100% Calm Calm -- 29.94 in1013.9 mb - 0.00 in0.0 mm 0.00 in0.0 mm
02:30 AM 67.4°F19.7°C 67.4°F19.7°C 100% Calm Calm -- 29.94 in1013.9 mb - 0.00 in0.0 mm 0.00 in0.0 mm
02:25 AM 67.4°F19.7°C 67.4°F19.7°C 100% Calm Calm -- 29.94 in1013.9 mb - 0.00 in0.0 mm 0.00 in0.0 mm
02:20 AM 67.5°F19.7°C 67.5°F19.7°C 100% Calm Calm -- 29.94 in1013.9 mb - 0.00 in0.0 mm 0.00 in0.0 mm
02:15 AM 67.6°F19.8°C 67.6°F19.8°C 100% Calm Calm -- 29.95 in1014.2 mb - 0.00 in0.0 mm 0.00 in0.0 mm
02:10 AM 67.7°F19.8°C 67.7°F19.8°C 100% Calm Calm -- 29.95 in1014.2 mb - 0.00 in0.0 mm 0.00 in0.0 mm
02:05 AM 67.8°F19.9°C 67.8°F19.9°C 100% Calm Calm -- 29.95 in1014.2 mb - 0.00 in0.0 mm 0.00 in0.0 mm
02:00 AM 67.9°F19.9°C 67.9°F19.9°C 100% Calm Calm -- 29.95 in1014.2 mb - 0.00 in0.0 mm 0.00 in0.0 mm
01:55 AM 67.9°F19.9°C 67.9°F19.9°C 100% Calm Calm -- 29.96 in1014.6 mb - 0.00 in0.0 mm 0.00 in0.0 mm
01:50 AM 67.9°F19.9°C 67.9°F19.9°C 100% Calm Calm -- 29.96 in1014.6 mb - 0.00 in0.0 mm 0.00 in0.0 mm
01:45 AM 67.9°F19.9°C 67.9°F19.9°C 100% Calm Calm -- 29.96 in1014.6 mb - 0.00 in0.0 mm 0.00 in0.0 mm
01:40 AM 67.9°F19.9°C 67.9°F19.9°C 100% Calm Calm -- 29.96 in1014.6 mb - 0.00 in0.0 mm 0.00 in0.0 mm
01:35 AM 67.9°F19.9°C 67.9°F19.9°C 100% Calm Calm -- 29.96 in1014.6 mb - 0.00 in0.0 mm 0.00 in0.0 mm
01:30 AM 67.9°F19.9°C 67.9°F19.9°C 100% Calm Calm -- 29.96 in1014.6 mb - 0.00 in0.0 mm 0.00 in0.0 mm
01:25 AM 67.9°F19.9°C 67.9°F19.9°C 100% Calm Calm -- 29.96 in1014.6 mb - 0.00 in0.0 mm 0.00 in0.0 mm
01:20 AM 67.9°F19.9°C 67.9°F19.9°C 100% Calm Calm -- 29.96 in1014.6 mb - 0.00 in0.0 mm 0.00 in0.0 mm
01:15 AM 67.9°F19.9°C 67.9°F19.9°C 100% Calm Calm -- 29.96 in1014.6 mb - 0.00 in0.0 mm 0.00 in0.0 mm
01:10 AM 68.0°F20.0°C 68.0°F20.0°C 100% Calm Calm -- 29.96 in1014.6 mb - 0.00 in0.0 mm 0.00 in0.0 mm
01:05 AM 68.1°F20.1°C 68.1°F20.1°C 100% Calm Calm -- 29.96 in1014.6 mb - 0.00 in0.0 mm 0.00 in0.0 mm
01:00 AM 68.2°F20.1°C 68.2°F20.1°C 100% Calm Calm -- 29.96 in1014.6 mb - 0.00 in0.0 mm 0.00 in0.0 mm
12:55 AM 68.4°F20.2°C 68.4°F20.2°C 100% Calm Calm -- 29.96 in1014.6 mb - 0.00 in0.0 mm 0.00 in0.0 mm
12:50 AM 68.4°F20.2°C 68.4°F20.2°C 100% Calm Calm -- 29.96 in1014.6 mb - 0.00 in0.0 mm 0.00 in0.0 mm
12:45 AM 68.4°F20.2°C 68.4°F20.2°C 100% Calm Calm -- 29.96 in1014.6 mb - 0.00 in0.0 mm 0.00 in0.0 mm
12:40 AM 68.4°F20.2°C 68.4°F20.2°C 100% Calm Calm -- 29.96 in1014.6 mb - 0.00 in0.0 mm 0.00 in0.0 mm
12:35 AM 68.4°F20.2°C 68.4°F20.2°C 100% Calm Calm -- 29.96 in1014.6 mb - 0.00 in0.0 mm 0.00 in0.0 mm
12:30 AM 68.4°F20.2°C 68.4°F20.2°C 100% Calm Calm -- 29.97 in1014.9 mb - 0.00 in0.0 mm 0.00 in0.0 mm
12:25 AM 68.5°F20.3°C 68.5°F20.3°C 100% Calm Calm -- 29.97 in1014.9 mb - 0.00 in0.0 mm 0.00 in0.0 mm
12:20 AM 68.6°F20.3°C 68.6°F20.3°C 100% Calm Calm -- 29.97 in1014.9 mb - 0.00 in0.0 mm 0.00 in0.0 mm
12:15 AM 68.6°F20.3°C 68.6°F20.3°C 100% Calm Calm -- 29.97 in1014.9 mb - 0.00 in0.0 mm 0.00 in0.0 mm
12:10 AM 68.7°F20.4°C 68.7°F20.4°C 100% Calm Calm -- 29.97 in1014.9 mb - 0.00 in0.0 mm 0.00 in0.0 mm
12:05 AM 68.7°F20.4°C 68.7°F20.4°C 100% Calm Calm -- 29.97 in1014.9 mb - 0.00 in0.0 mm 0.00 in0.0 mm
12:00 AM 68.8°F20.4°C 68.8°F20.4°C 100% Calm Calm -- 29.97 in1014.9 mb - 0.00 in0.0 mm 0.00 in0.0 mm